sensor_id;sensor_type;location;lat;lon;timestamp;temperature;humidity
17843;DHT22;69286;48.222;16.332;2023-06-24T00:00:55;19.00;92.30
17843;DHT22;69286;48.222;16.332;2023-06-24T00:03:22;19.00;92.40
17843;DHT22;69286;48.222;16.332;2023-06-24T00:05:50;19.00;92.30
17843;DHT22;69286;48.222;16.332;2023-06-24T00:08:18;18.90;92.50
17843;DHT22;69286;48.222;16.332;2023-06-24T00:10:46;18.80;92.70
17843;DHT22;69286;48.222;16.332;2023-06-24T00:13:13;18.80;92.70
17843;DHT22;69286;48.222;16.332;2023-06-24T00:15:40;18.80;92.90
17843;DHT22;69286;48.222;16.332;2023-06-24T00:18:08;18.80;92.80
17843;DHT22;69286;48.222;16.332;2023-06-24T00:20:35;18.80;92.80
17843;DHT22;69286;48.222;16.332;2023-06-24T00:23:05;18.70;92.90
17843;DHT22;69286;48.222;16.332;2023-06-24T00:25:32;18.70;93.00
17843;DHT22;69286;48.222;16.332;2023-06-24T00:27:59;18.70;93.00
17843;DHT22;69286;48.222;16.332;2023-06-24T00:30:26;18.70;93.00
17843;DHT22;69286;48.222;16.332;2023-06-24T00:32:53;18.70;93.10
17843;DHT22;69286;48.222;16.332;2023-06-24T00:35:21;18.70;93.20
17843;DHT22;69286;48.222;16.332;2023-06-24T00:37:48;18.70;93.30
17843;DHT22;69286;48.222;16.332;2023-06-24T00:40:16;18.70;93.30
17843;DHT22;69286;48.222;16.332;2023-06-24T00:42:45;18.70;93.40
17843;DHT22;69286;48.222;16.332;2023-06-24T00:45:12;18.70;93.50
17843;DHT22;69286;48.222;16.332;2023-06-24T00:47:39;18.70;93.60
17843;DHT22;69286;48.222;16.332;2023-06-24T00:50:08;18.70;93.40
17843;DHT22;69286;48.222;16.332;2023-06-24T00:52:37;18.70;93.50
17843;DHT22;69286;48.222;16.332;2023-06-24T00:55:08;18.70;93.50
17843;DHT22;69286;48.222;16.332;2023-06-24T00:57:39;18.70;93.60
17843;DHT22;69286;48.222;16.332;2023-06-24T01:00:07;18.70;93.80
17843;DHT22;69286;48.222;16.332;2023-06-24T01:02:35;18.70;93.60
17843;DHT22;69286;48.222;16.332;2023-06-24T01:05:03;18.60;93.70
17843;DHT22;69286;48.222;16.332;2023-06-24T01:07:31;18.60;93.70
17843;DHT22;69286;48.222;16.332;2023-06-24T01:10:01;18.60;93.80
17843;DHT22;69286;48.222;16.332;2023-06-24T01:12:30;18.60;93.90
17843;DHT22;69286;48.222;16.332;2023-06-24T01:14:58;18.70;94.00
17843;DHT22;69286;48.222;16.332;2023-06-24T01:17:33;18.70;94.00
17843;DHT22;69286;48.222;16.332;2023-06-24T01:20:04;18.60;94.10
17843;DHT22;69286;48.222;16.332;2023-06-24T01:23:06;18.60;94.10
17843;DHT22;69286;48.222;16.332;2023-06-24T01:25:48;18.60;94.40
17843;DHT22;69286;48.222;16.332;2023-06-24T01:28:39;18.60;94.30
17843;DHT22;69286;48.222;16.332;2023-06-24T01:31:38;18.60;94.50
17843;DHT22;69286;48.222;16.332;2023-06-24T01:34:13;18.60;94.50
17843;DHT22;69286;48.222;16.332;2023-06-24T01:36:47;18.50;94.70
17843;DHT22;69286;48.222;16.332;2023-06-24T01:39:16;18.50;94.80
17843;DHT22;69286;48.222;16.332;2023-06-24T01:41:49;18.50;94.90
17843;DHT22;69286;48.222;16.332;2023-06-24T01:44:18;18.50;95.10
17843;DHT22;69286;48.222;16.332;2023-06-24T01:46:48;18.50;94.90
17843;DHT22;69286;48.222;16.332;2023-06-24T01:49:19;18.50;94.90
17843;DHT22;69286;48.222;16.332;2023-06-24T01:51:48;18.50;95.00
17843;DHT22;69286;48.222;16.332;2023-06-24T01:54:17;18.50;95.10
17843;DHT22;69286;48.222;16.332;2023-06-24T01:56:47;18.50;95.30
17843;DHT22;69286;48.222;16.332;2023-06-24T01:59:17;18.50;95.50
17843;DHT22;69286;48.222;16.332;2023-06-24T02:01:46;18.40;95.70
17843;DHT22;69286;48.222;16.332;2023-06-24T02:04:14;18.40;95.70
17843;DHT22;69286;48.222;16.332;2023-06-24T02:06:43;18.40;95.80
17843;DHT22;69286;48.222;16.332;2023-06-24T02:09:11;18.40;95.90
17843;DHT22;69286;48.222;16.332;2023-06-24T02:11:40;18.40;95.90
17843;DHT22;69286;48.222;16.332;2023-06-24T02:14:07;18.40;96.20
17843;DHT22;69286;48.222;16.332;2023-06-24T02:16:37;18.40;96.30
17843;DHT22;69286;48.222;16.332;2023-06-24T02:19:10;18.40;96.50
17843;DHT22;69286;48.222;16.332;2023-06-24T02:21:39;18.40;96.40
17843;DHT22;69286;48.222;16.332;2023-06-24T02:24:07;18.40;96.50
17843;DHT22;69286;48.222;16.332;2023-06-24T02:26:35;18.40;96.70
17843;DHT22;69286;48.222;16.332;2023-06-24T02:29:06;18.50;96.80
17843;DHT22;69286;48.222;16.332;2023-06-24T02:31:35;18.40;97.00
17843;DHT22;69286;48.222;16.332;2023-06-24T02:34:02;18.40;97.10
17843;DHT22;69286;48.222;16.332;2023-06-24T02:36:30;18.40;97.20
17843;DHT22;69286;48.222;16.332;2023-06-24T02:38:58;18.30;97.60
17843;DHT22;69286;48.222;16.332;2023-06-24T02:41:24;18.30;97.60
17843;DHT22;69286;48.222;16.332;2023-06-24T02:43:51;18.30;97.60
17843;DHT22;69286;48.222;16.332;2023-06-24T02:46:19;18.30;97.70
17843;DHT22;69286;48.222;16.332;2023-06-24T02:48:48;18.30;97.90
17843;DHT22;69286;48.222;16.332;2023-06-24T02:51:16;18.30;98.00
17843;DHT22;69286;48.222;16.332;2023-06-24T02:53:45;18.30;98.20
17843;DHT22;69286;48.222;16.332;2023-06-24T02:56:13;18.20;98.30
17843;DHT22;69286;48.222;16.332;2023-06-24T02:58:46;18.20;98.50
17843;DHT22;69286;48.222;16.332;2023-06-24T03:01:14;18.20;98.90
17843;DHT22;69286;48.222;16.332;2023-06-24T03:03:42;18.20;98.90
17843;DHT22;69286;48.222;16.332;2023-06-24T03:06:14;18.20;99.10
17843;DHT22;69286;48.222;16.332;2023-06-24T03:08:45;18.20;99.00
17843;DHT22;69286;48.222;16.332;2023-06-24T03:11:12;18.20;99.20
17843;DHT22;69286;48.222;16.332;2023-06-24T03:13:40;18.20;99.10
17843;DHT22;69286;48.222;16.332;2023-06-24T03:16:07;18.20;99.30
17843;DHT22;69286;48.222;16.332;2023-06-24T03:18:37;18.10;99.50
17843;DHT22;69286;48.222;16.332;2023-06-24T03:21:05;18.10;99.70
17843;DHT22;69286;48.222;16.332;2023-06-24T03:23:32;18.10;99.90
17843;DHT22;69286;48.222;16.332;2023-06-24T03:26:01;18.10;99.90
17843;DHT22;69286;48.222;16.332;2023-06-24T03:28:29;18.10;99.90
17843;DHT22;69286;48.222;16.332;2023-06-24T03:30:56;18.10;99.90
17843;DHT22;69286;48.222;16.332;2023-06-24T03:33:23;18.00;99.90
17843;DHT22;69286;48.222;16.332;2023-06-24T03:35:52;18.00;99.90
17843;DHT22;69286;48.222;16.332;2023-06-24T03:38:19;18.00;99.90
17843;DHT22;69286;48.222;16.332;2023-06-24T03:40:46;18.00;99.90
17843;DHT22;69286;48.222;16.332;2023-06-24T03:43:15;18.00;99.90
17843;DHT22;69286;48.222;16.332;2023-06-24T03:45:42;18.00;99.90
17843;DHT22;69286;48.222;16.332;2023-06-24T03:48:09;18.00;99.90
17843;DHT22;69286;48.222;16.332;2023-06-24T03:50:36;18.10;99.90
17843;DHT22;69286;48.222;16.332;2023-06-24T03:53:03;18.10;99.90
17843;DHT22;69286;48.222;16.332;2023-06-24T03:55:31;18.10;99.90
17843;DHT22;69286;48.222;16.332;2023-06-24T03:57:58;18.10;99.90
17843;DHT22;69286;48.222;16.332;2023-06-24T04:00:26;18.10;99.90
17843;DHT22;69286;48.222;16.332;2023-06-24T04:02:53;18.00;99.90
17843;DHT22;69286;48.222;16.332;2023-06-24T04:05:20;18.00;99.90
17843;DHT22;69286;48.222;16.332;2023-06-24T04:07:48;18.00;99.90
17843;DHT22;69286;48.222;16.332;2023-06-24T04:10:19;18.00;99.90
17843;DHT22;69286;48.222;16.332;2023-06-24T04:12:46;17.90;99.90
17843;DHT22;69286;48.222;16.332;2023-06-24T04:15:13;18.00;99.90
17843;DHT22;69286;48.222;16.332;2023-06-24T04:17:41;18.00;99.90
17843;DHT22;69286;48.222;16.332;2023-06-24T04:20:09;18.00;99.90
17843;DHT22;69286;48.222;16.332;2023-06-24T04:22:36;18.00;99.90
17843;DHT22;69286;48.222;16.332;2023-06-24T04:25:04;17.90;99.90
17843;DHT22;69286;48.222;16.332;2023-06-24T04:27:32;17.90;99.90
17843;DHT22;69286;48.222;16.332;2023-06-24T04:29:59;18.00;99.90
17843;DHT22;69286;48.222;16.332;2023-06-24T04:32:26;18.00;99.90
17843;DHT22;69286;48.222;16.332;2023-06-24T04:34:55;18.10;99.90
17843;DHT22;69286;48.222;16.332;2023-06-24T04:37:22;18.10;99.90
17843;DHT22;69286;48.222;16.332;2023-06-24T04:39:49;18.20;99.90
17843;DHT22;69286;48.222;16.332;2023-06-24T04:42:16;18.20;99.90
17843;DHT22;69286;48.222;16.332;2023-06-24T04:44:43;18.20;99.90
17843;DHT22;69286;48.222;16.332;2023-06-24T04:47:10;18.20;99.90
17843;DHT22;69286;48.222;16.332;2023-06-24T04:49:39;18.20;99.90
17843;DHT22;69286;48.222;16.332;2023-06-24T04:52:07;18.30;99.90
17843;DHT22;69286;48.222;16.332;2023-06-24T04:54:34;18.30;99.90
17843;DHT22;69286;48.222;16.332;2023-06-24T04:57:01;18.30;99.90
17843;DHT22;69286;48.222;16.332;2023-06-24T04:59:28;18.30;99.90
17843;DHT22;69286;48.222;16.332;2023-06-24T05:01:55;18.40;99.90
17843;DHT22;69286;48.222;16.332;2023-06-24T05:04:22;18.40;99.90
17843;DHT22;69286;48.222;16.332;2023-06-24T05:06:49;18.40;99.90
17843;DHT22;69286;48.222;16.332;2023-06-24T05:09:18;18.50;99.90
17843;DHT22;69286;48.222;16.332;2023-06-24T05:11:45;18.50;99.90
17843;DHT22;69286;48.222;16.332;2023-06-24T05:14:12;18.50;99.90
17843;DHT22;69286;48.222;16.332;2023-06-24T05:16:39;18.50;99.90
17843;DHT22;69286;48.222;16.332;2023-06-24T05:19:06;18.40;99.90
17843;DHT22;69286;48.222;16.332;2023-06-24T05:21:33;18.50;99.90
17843;DHT22;69286;48.222;16.332;2023-06-24T05:24:00;18.70;99.90
17843;DHT22;69286;48.222;16.332;2023-06-24T05:26:28;18.70;99.90
17843;DHT22;69286;48.222;16.332;2023-06-24T05:28:55;19.00;99.90
17843;DHT22;69286;48.222;16.332;2023-06-24T05:31:22;19.20;99.90
17843;DHT22;69286;48.222;16.332;2023-06-24T05:33:49;19.30;99.90
17843;DHT22;69286;48.222;16.332;2023-06-24T05:36:16;19.20;99.90
17843;DHT22;69286;48.222;16.332;2023-06-24T05:38:43;19.10;99.90
17843;DHT22;69286;48.222;16.332;2023-06-24T05:41:10;19.10;99.90
17843;DHT22;69286;48.222;16.332;2023-06-24T05:43:38;18.90;99.90
17843;DHT22;69286;48.222;16.332;2023-06-24T05:46:05;18.90;99.90
17843;DHT22;69286;48.222;16.332;2023-06-24T05:48:32;18.80;99.90
17843;DHT22;69286;48.222;16.332;2023-06-24T05:50:59;18.80;99.90
17843;DHT22;69286;48.222;16.332;2023-06-24T05:53:26;18.80;99.90
17843;DHT22;69286;48.222;16.332;2023-06-24T05:55:53;19.00;99.90
17843;DHT22;69286;48.222;16.332;2023-06-24T05:58:20;19.10;99.90
17843;DHT22;69286;48.222;16.332;2023-06-24T06:00:49;19.30;99.90
17843;DHT22;69286;48.222;16.332;2023-06-24T06:03:16;19.60;99.90
17843;DHT22;69286;48.222;16.332;2023-06-24T06:05:43;19.90;99.90
17843;DHT22;69286;48.222;16.332;2023-06-24T06:08:10;20.10;99.90
17843;DHT22;69286;48.222;16.332;2023-06-24T06:10:37;20.20;99.90
17843;DHT22;69286;48.222;16.332;2023-06-24T06:13:04;20.10;99.50
17843;DHT22;69286;48.222;16.332;2023-06-24T06:15:31;19.90;99.90
17843;DHT22;69286;48.222;16.332;2023-06-24T06:17:59;19.70;99.70
17843;DHT22;69286;48.222;16.332;2023-06-24T06:20:26;19.50;99.90
17843;DHT22;69286;48.222;16.332;2023-06-24T06:22:53;19.30;99.90
17843;DHT22;69286;48.222;16.332;2023-06-24T06:25:20;19.30;99.90
17843;DHT22;69286;48.222;16.332;2023-06-24T06:27:47;19.20;99.90
17843;DHT22;69286;48.222;16.332;2023-06-24T06:30:15;19.20;99.90
17843;DHT22;69286;48.222;16.332;2023-06-24T06:32:42;19.10;99.90
17843;DHT22;69286;48.222;16.332;2023-06-24T06:35:10;19.00;99.90
17843;DHT22;69286;48.222;16.332;2023-06-24T06:37:37;18.90;99.90
17843;DHT22;69286;48.222;16.332;2023-06-24T06:40:05;18.90;99.90
17843;DHT22;69286;48.222;16.332;2023-06-24T06:42:33;18.80;99.90
17843;DHT22;69286;48.222;16.332;2023-06-24T06:44:59;18.80;99.90
17843;DHT22;69286;48.222;16.332;2023-06-24T06:47:26;18.70;99.90
17843;DHT22;69286;48.222;16.332;2023-06-24T06:49:53;18.60;99.90
17843;DHT22;69286;48.222;16.332;2023-06-24T06:52:22;18.60;99.90
17843;DHT22;69286;48.222;16.332;2023-06-24T06:54:49;18.50;99.90
17843;DHT22;69286;48.222;16.332;2023-06-24T06:57:16;18.50;99.90
17843;DHT22;69286;48.222;16.332;2023-06-24T06:59:43;18.60;99.90
17843;DHT22;69286;48.222;16.332;2023-06-24T07:02:10;18.60;99.90
17843;DHT22;69286;48.222;16.332;2023-06-24T07:04:37;18.70;99.90
17843;DHT22;69286;48.222;16.332;2023-06-24T07:07:04;18.70;99.90
17843;DHT22;69286;48.222;16.332;2023-06-24T07:09:33;18.80;99.90
17843;DHT22;69286;48.222;16.332;2023-06-24T07:12:00;19.10;99.90
17843;DHT22;69286;48.222;16.332;2023-06-24T07:14:27;19.30;99.90
17843;DHT22;69286;48.222;16.332;2023-06-24T07:16:54;19.60;99.90
17843;DHT22;69286;48.222;16.332;2023-06-24T07:19:21;20.00;98.60
17843;DHT22;69286;48.222;16.332;2023-06-24T07:21:48;20.30;97.10
17843;DHT22;69286;48.222;16.332;2023-06-24T07:24:15;20.40;96.70
17843;DHT22;69286;48.222;16.332;2023-06-24T07:26:43;20.50;96.20
17843;DHT22;69286;48.222;16.332;2023-06-24T07:29:10;20.40;96.10
17843;DHT22;69286;48.222;16.332;2023-06-24T07:31:37;20.30;95.60
17843;DHT22;69286;48.222;16.332;2023-06-24T07:34:05;20.20;96.00
17843;DHT22;69286;48.222;16.332;2023-06-24T07:36:31;20.10;95.90
17843;DHT22;69286;48.222;16.332;2023-06-24T07:38:58;20.00;96.30
17843;DHT22;69286;48.222;16.332;2023-06-24T07:41:25;19.80;96.40
17843;DHT22;69286;48.222;16.332;2023-06-24T07:43:54;19.80;96.30
17843;DHT22;69286;48.222;16.332;2023-06-24T07:46:21;19.70;96.60
17843;DHT22;69286;48.222;16.332;2023-06-24T07:48:48;19.60;96.90
17843;DHT22;69286;48.222;16.332;2023-06-24T07:51:15;19.60;96.90
17843;DHT22;69286;48.222;16.332;2023-06-24T07:53:43;19.60;96.80
17843;DHT22;69286;48.222;16.332;2023-06-24T07:56:10;19.60;96.80
17843;DHT22;69286;48.222;16.332;2023-06-24T07:58:37;19.50;96.70
17843;DHT22;69286;48.222;16.332;2023-06-24T08:01:06;19.50;96.80
17843;DHT22;69286;48.222;16.332;2023-06-24T08:03:33;19.40;96.80
17843;DHT22;69286;48.222;16.332;2023-06-24T08:06:02;19.40;97.00
17843;DHT22;69286;48.222;16.332;2023-06-24T08:08:29;19.30;96.80
17843;DHT22;69286;48.222;16.332;2023-06-24T08:10:56;19.30;97.00
17843;DHT22;69286;48.222;16.332;2023-06-24T08:13:23;19.20;97.30
17843;DHT22;69286;48.222;16.332;2023-06-24T08:15:50;19.10;97.50
17843;DHT22;69286;48.222;16.332;2023-06-24T08:18:18;19.10;97.90
17843;DHT22;69286;48.222;16.332;2023-06-24T08:20:45;19.20;97.80
17843;DHT22;69286;48.222;16.332;2023-06-24T08:23:12;19.10;97.80
17843;DHT22;69286;48.222;16.332;2023-06-24T08:25:39;19.30;97.70
17843;DHT22;69286;48.222;16.332;2023-06-24T08:28:06;19.30;97.70
17843;DHT22;69286;48.222;16.332;2023-06-24T08:30:33;19.40;97.40
17843;DHT22;69286;48.222;16.332;2023-06-24T08:33:00;19.50;97.00
17843;DHT22;69286;48.222;16.332;2023-06-24T08:35:29;19.20;96.90
17843;DHT22;69286;48.222;16.332;2023-06-24T08:37:56;19.60;96.60
17843;DHT22;69286;48.222;16.332;2023-06-24T08:40:23;19.60;96.60
17843;DHT22;69286;48.222;16.332;2023-06-24T08:42:49;19.60;96.80
17843;DHT22;69286;48.222;16.332;2023-06-24T08:45:17;19.60;96.80
17843;DHT22;69286;48.222;16.332;2023-06-24T08:47:44;19.60;97.00
17843;DHT22;69286;48.222;16.332;2023-06-24T08:50:12;19.60;96.80
17843;DHT22;69286;48.222;16.332;2023-06-24T08:52:45;19.70;96.90
17843;DHT22;69286;48.222;16.332;2023-06-24T08:55:16;19.70;96.90
17843;DHT22;69286;48.222;16.332;2023-06-24T08:57:43;19.80;96.40
17843;DHT22;69286;48.222;16.332;2023-06-24T09:00:11;19.80;96.30
17843;DHT22;69286;48.222;16.332;2023-06-24T09:02:38;19.80;96.30
17843;DHT22;69286;48.222;16.332;2023-06-24T09:05:06;19.90;96.50
17843;DHT22;69286;48.222;16.332;2023-06-24T09:07:33;19.80;96.30
17843;DHT22;69286;48.222;16.332;2023-06-24T09:10:01;19.80;96.00
17843;DHT22;69286;48.222;16.332;2023-06-24T09:12:32;19.80;96.20
17843;DHT22;69286;48.222;16.332;2023-06-24T09:14:59;19.80;96.10
17843;DHT22;69286;48.222;16.332;2023-06-24T09:17:26;19.80;96.30
17843;DHT22;69286;48.222;16.332;2023-06-24T09:19:54;19.80;96.90
17843;DHT22;69286;48.222;16.332;2023-06-24T09:22:30;19.90;96.60
17843;DHT22;69286;48.222;16.332;2023-06-24T09:25:02;19.90;96.60
17843;DHT22;69286;48.222;16.332;2023-06-24T09:27:31;19.90;96.70
17843;DHT22;69286;48.222;16.332;2023-06-24T09:29:59;20.00;96.70
17843;DHT22;69286;48.222;16.332;2023-06-24T09:32:29;20.00;96.80
17843;DHT22;69286;48.222;16.332;2023-06-24T09:34:55;20.10;96.80
17843;DHT22;69286;48.222;16.332;2023-06-24T09:37:23;20.10;96.60
17843;DHT22;69286;48.222;16.332;2023-06-24T09:39:56;20.20;96.70
17843;DHT22;69286;48.222;16.332;2023-06-24T09:42:25;20.30;96.70
17843;DHT22;69286;48.222;16.332;2023-06-24T09:44:53;20.30;96.80
17843;DHT22;69286;48.222;16.332;2023-06-24T09:47:21;20.20;96.30
17843;DHT22;69286;48.222;16.332;2023-06-24T09:49:51;20.30;96.40
17843;DHT22;69286;48.222;16.332;2023-06-24T09:52:19;20.30;96.00
17843;DHT22;69286;48.222;16.332;2023-06-24T09:54:49;20.20;95.90
17843;DHT22;69286;48.222;16.332;2023-06-24T09:57:19;20.30;96.10
17843;DHT22;69286;48.222;16.332;2023-06-24T09:59:51;20.30;96.20
17843;DHT22;69286;48.222;16.332;2023-06-24T10:02:18;20.30;96.40
17843;DHT22;69286;48.222;16.332;2023-06-24T10:04:46;20.30;96.40
17843;DHT22;69286;48.222;16.332;2023-06-24T10:07:13;20.30;96.10
17843;DHT22;69286;48.222;16.332;2023-06-24T10:09:41;20.30;95.80
17843;DHT22;69286;48.222;16.332;2023-06-24T10:12:09;20.30;96.00
17843;DHT22;69286;48.222;16.332;2023-06-24T10:14:37;20.20;96.10
17843;DHT22;69286;48.222;16.332;2023-06-24T10:17:06;20.30;95.90
17843;DHT22;69286;48.222;16.332;2023-06-24T10:19:38;20.30;95.70
17843;DHT22;69286;48.222;16.332;2023-06-24T10:22:08;20.30;95.80
17843;DHT22;69286;48.222;16.332;2023-06-24T10:24:37;20.30;95.40
17843;DHT22;69286;48.222;16.332;2023-06-24T10:27:08;20.40;95.40
17843;DHT22;69286;48.222;16.332;2023-06-24T10:29:36;20.50;95.30
17843;DHT22;69286;48.222;16.332;2023-06-24T10:32:06;20.40;95.20
17843;DHT22;69286;48.222;16.332;2023-06-24T10:34:38;20.40;95.30
17843;DHT22;69286;48.222;16.332;2023-06-24T10:37:10;20.30;95.20
17843;DHT22;69286;48.222;16.332;2023-06-24T10:39:55;20.30;95.30
17843;DHT22;69286;48.222;16.332;2023-06-24T10:42:33;20.20;95.20
17843;DHT22;69286;48.222;16.332;2023-06-24T10:45:14;20.10;95.30
17843;DHT22;69286;48.222;16.332;2023-06-24T10:47:43;20.10;95.40
17843;DHT22;69286;48.222;16.332;2023-06-24T10:50:11;20.10;95.40
17843;DHT22;69286;48.222;16.332;2023-06-24T10:52:39;20.10;95.40
17843;DHT22;69286;48.222;16.332;2023-06-24T10:55:07;20.10;95.50
17843;DHT22;69286;48.222;16.332;2023-06-24T10:57:34;20.10;95.50
17843;DHT22;69286;48.222;16.332;2023-06-24T11:00:03;20.20;95.30
17843;DHT22;69286;48.222;16.332;2023-06-24T11:02:30;20.20;95.10
17843;DHT22;69286;48.222;16.332;2023-06-24T11:05:00;20.20;95.20
17843;DHT22;69286;48.222;16.332;2023-06-24T11:07:29;20.20;95.20
17843;DHT22;69286;48.222;16.332;2023-06-24T11:09:58;20.30;95.10
17843;DHT22;69286;48.222;16.332;2023-06-24T11:12:27;20.20;94.90
17843;DHT22;69286;48.222;16.332;2023-06-24T11:14:56;20.30;95.00
17843;DHT22;69286;48.222;16.332;2023-06-24T11:17:23;20.30;95.30
17843;DHT22;69286;48.222;16.332;2023-06-24T11:19:52;20.20;95.40
17843;DHT22;69286;48.222;16.332;2023-06-24T11:22:21;20.20;95.30
17843;DHT22;69286;48.222;16.332;2023-06-24T11:24:49;20.20;95.10
17843;DHT22;69286;48.222;16.332;2023-06-24T11:27:16;20.10;95.20
17843;DHT22;69286;48.222;16.332;2023-06-24T11:29:44;20.10;95.40
17843;DHT22;69286;48.222;16.332;2023-06-24T11:32:11;20.10;95.60
17843;DHT22;69286;48.222;16.332;2023-06-24T11:34:38;20.10;95.50
17843;DHT22;69286;48.222;16.332;2023-06-24T11:37:12;20.10;95.50
17843;DHT22;69286;48.222;16.332;2023-06-24T11:39:41;20.10;95.70
17843;DHT22;69286;48.222;16.332;2023-06-24T11:42:08;20.00;95.80
17843;DHT22;69286;48.222;16.332;2023-06-24T11:44:35;20.00;95.70
17843;DHT22;69286;48.222;16.332;2023-06-24T11:47:06;20.00;95.80
17843;DHT22;69286;48.222;16.332;2023-06-24T11:49:48;20.10;95.70
17843;DHT22;69286;48.222;16.332;2023-06-24T11:52:15;20.10;95.70
17843;DHT22;69286;48.222;16.332;2023-06-24T11:54:44;20.10;95.80
17843;DHT22;69286;48.222;16.332;2023-06-24T11:57:11;20.10;96.20
17843;DHT22;69286;48.222;16.332;2023-06-24T11:59:38;20.00;96.40
17843;DHT22;69286;48.222;16.332;2023-06-24T12:02:05;20.00;96.70
17843;DHT22;69286;48.222;16.332;2023-06-24T12:04:33;20.10;96.90
17843;DHT22;69286;48.222;16.332;2023-06-24T12:07:00;20.00;96.70
17843;DHT22;69286;48.222;16.332;2023-06-24T12:09:28;20.00;96.50
17843;DHT22;69286;48.222;16.332;2023-06-24T12:11:57;19.90;96.60
17843;DHT22;69286;48.222;16.332;2023-06-24T12:14:24;19.90;96.30
17843;DHT22;69286;48.222;16.332;2023-06-24T12:16:51;19.90;96.20
17843;DHT22;69286;48.222;16.332;2023-06-24T12:19:18;19.80;96.60
17843;DHT22;69286;48.222;16.332;2023-06-24T12:21:46;19.80;96.50
17843;DHT22;69286;48.222;16.332;2023-06-24T12:24:13;19.90;96.30
17843;DHT22;69286;48.222;16.332;2023-06-24T12:26:40;19.90;96.30
17843;DHT22;69286;48.222;16.332;2023-06-24T12:29:08;19.90;96.10
17843;DHT22;69286;48.222;16.332;2023-06-24T12:31:35;19.90;95.80
17843;DHT22;69286;48.222;16.332;2023-06-24T12:34:02;19.90;95.90
17843;DHT22;69286;48.222;16.332;2023-06-24T12:36:31;20.00;95.50
17843;DHT22;69286;48.222;16.332;2023-06-24T12:38:58;20.00;95.50
17843;DHT22;69286;48.222;16.332;2023-06-24T12:41:25;20.00;95.40
17843;DHT22;69286;48.222;16.332;2023-06-24T12:43:53;20.10;95.30
17843;DHT22;69286;48.222;16.332;2023-06-24T12:46:22;20.10;95.20
17843;DHT22;69286;48.222;16.332;2023-06-24T12:48:49;20.10;95.20
17843;DHT22;69286;48.222;16.332;2023-06-24T12:51:16;20.00;95.10
17843;DHT22;69286;48.222;16.332;2023-06-24T12:53:43;20.00;95.00
17843;DHT22;69286;48.222;16.332;2023-06-24T12:56:10;20.00;95.40
17843;DHT22;69286;48.222;16.332;2023-06-24T12:58:37;19.90;95.30
17843;DHT22;69286;48.222;16.332;2023-06-24T13:01:04;19.90;95.40
17843;DHT22;69286;48.222;16.332;2023-06-24T13:03:32;19.90;95.10
17843;DHT22;69286;48.222;16.332;2023-06-24T13:05:59;19.90;94.90
17843;DHT22;69286;48.222;16.332;2023-06-24T13:08:26;19.80;95.40
17843;DHT22;69286;48.222;16.332;2023-06-24T13:10:53;19.80;95.50
17843;DHT22;69286;48.222;16.332;2023-06-24T13:13:20;19.80;95.30
17843;DHT22;69286;48.222;16.332;2023-06-24T13:15:47;19.80;95.50
17843;DHT22;69286;48.222;16.332;2023-06-24T13:18:14;19.70;95.60
17843;DHT22;69286;48.222;16.332;2023-06-24T13:20:44;19.70;95.90
17843;DHT22;69286;48.222;16.332;2023-06-24T13:23:11;19.70;95.70
17843;DHT22;69286;48.222;16.332;2023-06-24T13:25:38;19.70;95.60
17843;DHT22;69286;48.222;16.332;2023-06-24T13:28:06;19.70;95.60
17843;DHT22;69286;48.222;16.332;2023-06-24T13:30:32;19.70;95.60
17843;DHT22;69286;48.222;16.332;2023-06-24T13:33:00;19.60;95.80
17843;DHT22;69286;48.222;16.332;2023-06-24T13:35:27;19.70;95.70
17843;DHT22;69286;48.222;16.332;2023-06-24T13:37:55;19.80;95.70
17843;DHT22;69286;48.222;16.332;2023-06-24T13:40:24;19.80;95.50
17843;DHT22;69286;48.222;16.332;2023-06-24T13:42:51;19.90;95.40
17843;DHT22;69286;48.222;16.332;2023-06-24T13:45:18;19.90;95.30
17843;DHT22;69286;48.222;16.332;2023-06-24T13:47:45;19.90;95.10
17843;DHT22;69286;48.222;16.332;2023-06-24T13:50:12;20.00;95.00
17843;DHT22;69286;48.222;16.332;2023-06-24T13:52:39;19.90;95.00
17843;DHT22;69286;48.222;16.332;2023-06-24T13:55:08;19.90;95.10
17843;DHT22;69286;48.222;16.332;2023-06-24T13:57:35;19.90;95.00
17843;DHT22;69286;48.222;16.332;2023-06-24T14:00:02;19.90;95.10
17843;DHT22;69286;48.222;16.332;2023-06-24T14:02:30;19.90;95.00
17843;DHT22;69286;48.222;16.332;2023-06-24T14:04:57;20.00;95.10
17843;DHT22;69286;48.222;16.332;2023-06-24T14:07:24;19.90;95.10
17843;DHT22;69286;48.222;16.332;2023-06-24T14:09:51;19.90;95.00
17843;DHT22;69286;48.222;16.332;2023-06-24T14:12:19;20.00;94.90
17843;DHT22;69286;48.222;16.332;2023-06-24T14:14:46;20.00;95.10
17843;DHT22;69286;48.222;16.332;2023-06-24T14:17:14;19.90;95.10
17843;DHT22;69286;48.222;16.332;2023-06-24T14:19:41;20.00;95.00
17843;DHT22;69286;48.222;16.332;2023-06-24T14:22:08;20.00;95.00
17843;DHT22;69286;48.222;16.332;2023-06-24T14:24:35;20.00;94.90
17843;DHT22;69286;48.222;16.332;2023-06-24T14:27:04;20.20;94.70
17843;DHT22;69286;48.222;16.332;2023-06-24T14:29:32;20.20;94.60
17843;DHT22;69286;48.222;16.332;2023-06-24T14:31:59;20.30;94.30
17843;DHT22;69286;48.222;16.332;2023-06-24T14:34:26;20.30;94.20
17843;DHT22;69286;48.222;16.332;2023-06-24T14:36:55;20.40;94.20
17843;DHT22;69286;48.222;16.332;2023-06-24T14:39:22;20.40;94.10
17843;DHT22;69286;48.222;16.332;2023-06-24T14:41:49;20.50;93.90
17843;DHT22;69286;48.222;16.332;2023-06-24T14:44:16;20.60;93.60
17843;DHT22;69286;48.222;16.332;2023-06-24T14:46:45;20.60;93.50
17843;DHT22;69286;48.222;16.332;2023-06-24T14:49:12;20.70;93.30
17843;DHT22;69286;48.222;16.332;2023-06-24T14:51:39;20.80;93.20
17843;DHT22;69286;48.222;16.332;2023-06-24T14:54:06;20.80;93.30
17843;DHT22;69286;48.222;16.332;2023-06-24T14:56:33;20.80;93.10
17843;DHT22;69286;48.222;16.332;2023-06-24T14:59:00;20.80;93.10
17843;DHT22;69286;48.222;16.332;2023-06-24T15:01:27;20.80;93.00
17843;DHT22;69286;48.222;16.332;2023-06-24T15:03:55;21.00;92.80
17843;DHT22;69286;48.222;16.332;2023-06-24T15:06:22;21.00;92.50
17843;DHT22;69286;48.222;16.332;2023-06-24T15:08:49;21.00;92.60
17843;DHT22;69286;48.222;16.332;2023-06-24T15:11:16;21.10;92.20
17843;DHT22;69286;48.222;16.332;2023-06-24T15:13:43;21.10;92.00
17843;DHT22;69286;48.222;16.332;2023-06-24T15:16:10;21.10;91.90
17843;DHT22;69286;48.222;16.332;2023-06-24T15:18:44;21.10;91.90
17843;DHT22;69286;48.222;16.332;2023-06-24T15:21:13;21.00;91.80